createdAt,value
2019-02-22T00:00:34.735Z,311
2019-02-22T00:01:41.935Z,311
2019-02-22T00:02:48.868Z,311
2019-02-22T00:03:56.118Z,310
2019-02-22T00:05:03.323Z,311
2019-02-22T00:06:10.516Z,311
2019-02-22T00:07:17.712Z,310
2019-02-22T00:08:24.638Z,311
2019-02-22T00:09:31.844Z,311
2019-02-22T00:10:39.040Z,311
2019-02-22T00:11:46.238Z,310
2019-02-22T00:12:53.437Z,311
2019-02-22T00:14:00.639Z,311
2019-02-22T00:15:07.566Z,311
2019-02-22T00:16:14.773Z,311
2019-02-22T00:17:21.699Z,310
2019-02-22T00:18:28.899Z,311
2019-02-22T00:19:36.097Z,310
2019-02-22T00:20:42.749Z,310
2019-02-22T00:21:49.947Z,311
2019-02-22T00:22:56.867Z,310
2019-02-22T00:24:04.121Z,311
2019-02-22T00:25:11.319Z,311
2019-02-22T00:26:18.522Z,311
2019-02-22T00:27:25.722Z,311
2019-02-22T00:28:32.922Z,311
2019-02-22T00:29:39.834Z,310
2019-02-22T00:30:47.033Z,310
2019-02-22T00:31:53.961Z,311
2019-02-22T00:33:01.157Z,311
2019-02-22T00:34:08.460Z,311
2019-02-22T00:35:15.891Z,311
2019-02-22T00:36:23.262Z,311
2019-02-22T00:37:30.551Z,311
2019-02-22T00:38:37.859Z,310
2019-02-22T00:39:44.794Z,311
2019-02-22T00:40:51.991Z,310
2019-02-22T00:41:59.192Z,310
2019-02-22T00:43:06.389Z,310
2019-02-22T00:44:13.586Z,310
2019-02-22T00:45:20.789Z,310
2019-02-22T00:46:27.713Z,310
2019-02-22T00:47:34.983Z,310
2019-02-22T00:48:41.909Z,310
2019-02-22T00:49:48.840Z,310
2019-02-22T00:50:55.776Z,310
2019-02-22T00:52:02.979Z,310
2019-02-22T00:53:10.171Z,311
2019-02-22T00:54:17.385Z,310
2019-02-22T00:55:24.625Z,310
2019-02-22T00:56:31.830Z,310
2019-02-22T00:57:39.032Z,310
2019-02-22T00:58:46.235Z,310
2019-02-22T00:59:53.437Z,310
2019-02-22T01:01:00.840Z,310
2019-02-22T01:02:08.037Z,311
2019-02-22T01:03:14.964Z,310
2019-02-22T01:04:22.159Z,310
2019-02-22T01:05:29.083Z,310
2019-02-22T01:06:36.286Z,310
2019-02-22T01:07:43.486Z,310
2019-02-22T01:08:50.684Z,310
2019-02-22T01:09:57.890Z,310
2019-02-22T01:11:04.824Z,311
2019-02-22T01:12:12.078Z,310
2019-02-22T01:13:19.275Z,310
2019-02-22T01:14:26.478Z,310
2019-02-22T01:15:33.683Z,310
2019-02-22T01:16:40.874Z,310
2019-02-22T01:17:48.073Z,310
2019-02-22T01:18:54.993Z,311
2019-02-22T01:20:02.045Z,311
2019-02-22T01:21:09.242Z,311
2019-02-22T01:22:16.436Z,311
2019-02-22T01:23:23.636Z,311
2019-02-22T01:24:30.831Z,310
2019-02-22T01:25:38.036Z,310
2019-02-22T01:26:45.230Z,310
2019-02-22T01:27:52.436Z,310
2019-02-22T01:28:59.637Z,310
2019-02-22T01:30:06.840Z,311
2019-02-22T01:31:13.834Z,310
2019-02-22T01:32:21.035Z,311
2019-02-22T01:33:28.232Z,311
2019-02-22T01:34:35.172Z,311
2019-02-22T01:35:42.370Z,311
2019-02-22T01:36:49.574Z,311
2019-02-22T01:37:56.768Z,310
2019-02-22T01:39:03.975Z,311
2019-02-22T01:40:11.183Z,311
2019-02-22T01:41:18.095Z,311
2019-02-22T01:42:25.019Z,310
2019-02-22T01:43:34.490Z,310
2019-02-22T01:44:41.420Z,311
2019-02-22T01:45:48.635Z,310
2019-02-22T01:46:55.826Z,310
2019-02-22T01:48:03.030Z,311
2019-02-22T01:49:09.951Z,311
2019-02-22T01:50:31.869Z,311
2019-02-22T01:51:39.072Z,311
2019-02-22T01:52:46.266Z,311
2019-02-22T01:53:54.838Z,311
2019-02-22T01:55:02.059Z,311
2019-02-22T01:56:09.259Z,311
2019-02-22T01:57:16.183Z,310
2019-02-22T01:58:23.380Z,311
2019-02-22T01:59:30.307Z,311
2019-02-22T02:00:40.576Z,311
2019-02-22T02:01:47.775Z,311
2019-02-22T02:02:54.978Z,311
2019-02-22T02:04:02.177Z,310
2019-02-22T02:05:09.376Z,311
2019-02-22T02:06:16.299Z,311
2019-02-22T02:07:23.521Z,311
2019-02-22T02:08:30.450Z,311
2019-02-22T02:09:37.873Z,312
2019-02-22T02:10:55.133Z,311
2019-02-22T02:12:03.104Z,311
2019-02-22T02:13:10.299Z,312
2019-02-22T02:14:17.602Z,311
2019-02-22T02:15:24.525Z,312
2019-02-22T02:16:31.451Z,311
2019-02-22T02:17:38.375Z,311
2019-02-22T02:18:45.580Z,311
2019-02-22T02:19:52.784Z,311
2019-02-22T02:20:59.985Z,311
2019-02-22T02:22:07.176Z,312
2019-02-22T02:23:14.372Z,311
2019-02-22T02:24:21.026Z,311
2019-02-22T02:25:27.949Z,312
2019-02-22T02:26:34.880Z,312
2019-02-22T02:27:42.080Z,312
2019-02-22T02:28:51.583Z,312
2019-02-22T02:29:58.682Z,311
2019-02-22T02:31:05.610Z,312
2019-02-22T02:32:12.897Z,311
2019-02-22T02:33:20.096Z,312
2019-02-22T02:34:27.401Z,312
2019-02-22T02:35:34.057Z,312
2019-02-22T02:36:40.985Z,312
2019-02-22T02:37:48.188Z,312
2019-02-22T02:38:55.384Z,312
2019-02-22T02:40:02.594Z,311
2019-02-22T02:41:12.538Z,312
2019-02-22T02:42:19.842Z,312
2019-02-22T02:43:27.044Z,312
2019-02-22T02:44:34.242Z,312
2019-02-22T02:45:41.438Z,312
2019-02-22T02:46:48.635Z,311
2019-02-22T02:47:55.836Z,312
2019-02-22T02:49:02.767Z,312
2019-02-22T02:50:09.966Z,312
2019-02-22T02:51:17.160Z,312
2019-02-22T02:52:24.357Z,312
2019-02-22T02:53:31.554Z,312
2019-02-22T02:54:38.758Z,311
2019-02-22T02:55:46.115Z,312
2019-02-22T02:56:53.331Z,311
2019-02-22T02:58:00.528Z,312
2019-02-22T02:59:07.793Z,312
2019-02-22T03:00:14.978Z,311
2019-02-22T03:01:22.173Z,311
2019-02-22T03:02:29.388Z,311
2019-02-22T03:03:36.588Z,311
2019-02-22T03:04:43.782Z,312
2019-02-22T03:05:50.990Z,312
2019-02-22T03:06:58.192Z,312
2019-02-22T03:08:05.392Z,311
2019-02-22T03:09:12.591Z,312
2019-02-22T03:10:19.820Z,311
2019-02-22T03:11:27.024Z,311
2019-02-22T03:12:34.224Z,312
2019-02-22T03:13:41.423Z,311
2019-02-22T03:14:48.391Z,312
2019-02-22T03:15:55.049Z,312
2019-02-22T03:17:02.278Z,312
2019-02-22T03:18:09.477Z,312
2019-02-22T03:19:16.405Z,312
2019-02-22T03:20:23.599Z,311
2019-02-22T03:21:30.816Z,312
2019-02-22T03:22:38.012Z,311
2019-02-22T03:23:45.213Z,312
2019-02-22T03:24:54.605Z,312
2019-02-22T03:26:01.814Z,312
2019-02-22T03:27:09.076Z,312
2019-02-22T03:28:16.277Z,312
2019-02-22T03:29:23.517Z,311
2019-02-22T03:30:30.729Z,312
2019-02-22T03:31:37.653Z,312
2019-02-22T03:32:44.856Z,312
2019-02-22T03:33:52.097Z,312
2019-02-22T03:34:59.333Z,312
2019-02-22T03:36:06.531Z,312
2019-02-22T03:37:13.451Z,312
2019-02-22T03:38:20.645Z,312
2019-02-22T03:39:27.600Z,312
2019-02-22T03:40:34.802Z,312
2019-02-22T03:41:42.002Z,312
2019-02-22T03:42:49.190Z,313
2019-02-22T03:43:56.393Z,312
2019-02-22T03:45:03.313Z,313
2019-02-22T03:46:10.508Z,313
2019-02-22T03:47:17.438Z,313
2019-02-22T03:48:24.631Z,313
2019-02-22T03:49:31.839Z,313
2019-02-22T03:50:39.041Z,313
2019-02-22T03:51:45.959Z,313
2019-02-22T03:52:53.164Z,313
2019-02-22T03:54:00.364Z,313
2019-02-22T03:55:07.299Z,313
2019-02-22T03:56:14.516Z,312
2019-02-22T03:57:21.708Z,313
2019-02-22T03:58:28.907Z,312
2019-02-22T03:59:35.832Z,313
2019-02-22T04:00:43.028Z,313
2019-02-22T04:01:49.949Z,313
2019-02-22T04:02:57.153Z,313
2019-02-22T04:04:04.356Z,313
2019-02-22T04:05:11.600Z,313
2019-02-22T04:06:18.527Z,313
2019-02-22T04:07:25.723Z,313
2019-02-22T04:08:32.918Z,314
2019-02-22T04:09:39.849Z,313
2019-02-22T04:10:46.502Z,313
2019-02-22T04:11:53.713Z,313
2019-02-22T04:13:00.915Z,313
2019-02-22T04:14:08.121Z,313
2019-02-22T04:15:15.052Z,313
2019-02-22T04:16:22.252Z,313
2019-02-22T04:17:29.456Z,313
2019-02-22T04:18:36.648Z,313
2019-02-22T04:19:43.853Z,314
2019-02-22T04:20:51.052Z,314
2019-02-22T04:21:58.260Z,314
2019-02-22T04:23:05.183Z,314
2019-02-22T04:24:12.381Z,314
2019-02-22T04:25:19.312Z,314
2019-02-22T04:26:26.514Z,314
2019-02-22T04:27:33.445Z,314
2019-02-22T04:28:40.645Z,314
2019-02-22T04:29:47.863Z,314
2019-02-22T04:30:54.529Z,314
2019-02-22T04:32:01.725Z,314
2019-02-22T04:33:08.652Z,314
2019-02-22T04:34:15.846Z,314
2019-02-22T04:35:23.042Z,314
2019-02-22T04:36:29.690Z,314
2019-02-22T04:37:36.617Z,314
2019-02-22T04:38:43.825Z,314
2019-02-22T04:39:51.019Z,314
2019-02-22T04:40:58.214Z,313
2019-02-22T04:42:05.434Z,313
2019-02-22T04:43:12.631Z,313
2019-02-22T04:44:19.828Z,314
2019-02-22T04:45:27.029Z,313
2019-02-22T04:46:34.283Z,313
2019-02-22T04:47:41.483Z,313
2019-02-22T04:48:48.681Z,313
2019-02-22T04:49:55.602Z,314
2019-02-22T04:51:02.800Z,314
2019-02-22T04:52:09.995Z,314
2019-02-22T04:53:17.190Z,314
2019-02-22T04:54:24.405Z,314
2019-02-22T04:55:31.658Z,314
2019-02-22T04:56:38.856Z,314
2019-02-22T04:57:46.055Z,315
2019-02-22T04:58:53.356Z,315
2019-02-22T05:00:00.793Z,315
2019-02-22T05:01:07.991Z,315
2019-02-22T05:02:15.185Z,315
2019-02-22T05:03:22.379Z,314
2019-02-22T05:04:29.592Z,315
2019-02-22T05:05:36.776Z,315
2019-02-22T05:06:43.979Z,315
2019-02-22T05:07:51.174Z,314
2019-02-22T05:08:58.379Z,314
2019-02-22T05:10:05.572Z,314
2019-02-22T05:11:12.768Z,315
2019-02-22T05:12:19.971Z,314
2019-02-22T05:13:27.175Z,314
2019-02-22T05:14:34.603Z,314
2019-02-22T05:15:41.829Z,315
2019-02-22T05:16:49.063Z,315
2019-02-22T05:17:56.262Z,315
2019-02-22T05:19:03.197Z,315
2019-02-22T05:20:10.392Z,314
2019-02-22T05:21:17.592Z,315
2019-02-22T05:22:24.794Z,315
2019-02-22T05:23:31.998Z,314
2019-02-22T05:24:38.942Z,315
2019-02-22T05:25:46.139Z,315
2019-02-22T05:26:53.339Z,315
2019-02-22T05:28:00.534Z,315
2019-02-22T05:29:07.733Z,315
2019-02-22T05:30:14.935Z,315
2019-02-22T05:31:21.854Z,315
2019-02-22T05:32:29.053Z,315
2019-02-22T05:33:36.022Z,315
2019-02-22T05:34:43.213Z,314
2019-02-22T05:35:50.411Z,314
2019-02-22T05:36:57.361Z,315
2019-02-22T05:38:04.556Z,315
2019-02-22T05:39:20.216Z,315
2019-02-22T05:40:27.410Z,315
2019-02-22T05:41:34.613Z,315
2019-02-22T05:42:41.534Z,315
2019-02-22T05:43:48.736Z,315
2019-02-22T05:44:55.660Z,315
2019-02-22T05:46:02.862Z,316
2019-02-22T05:47:09.786Z,315
2019-02-22T05:48:16.724Z,316
2019-02-22T05:49:23.917Z,315
2019-02-22T05:50:31.127Z,315
2019-02-22T05:51:38.047Z,315
2019-02-22T05:52:45.262Z,315
2019-02-22T05:53:52.481Z,316
2019-02-22T05:54:59.680Z,315
2019-02-22T05:56:07.050Z,316
2019-02-22T05:57:15.316Z,315
2019-02-22T05:58:22.245Z,315
2019-02-22T05:59:29.441Z,316
2019-02-22T06:00:36.642Z,315
2019-02-22T06:01:43.853Z,316
2019-02-22T06:02:51.055Z,316
2019-02-22T06:03:58.254Z,315
2019-02-22T06:05:05.634Z,315
2019-02-22T06:06:12.820Z,316
2019-02-22T06:07:20.018Z,316
2019-02-22T06:08:27.222Z,316
2019-02-22T06:09:34.420Z,316
2019-02-22T06:10:41.621Z,316
2019-02-22T06:11:48.895Z,317
2019-02-22T06:12:56.088Z,317
2019-02-22T06:14:03.005Z,317
2019-02-22T06:15:09.945Z,316
2019-02-22T06:16:17.137Z,317
2019-02-22T06:17:24.336Z,317
2019-02-22T06:18:31.542Z,317
2019-02-22T06:19:38.475Z,317
2019-02-22T06:20:45.404Z,317
2019-02-22T06:21:52.607Z,317
2019-02-22T06:22:59.820Z,317
2019-02-22T06:24:07.027Z,317
2019-02-22T06:25:14.228Z,317
2019-02-22T06:26:21.154Z,317
2019-02-22T06:27:28.082Z,317
2019-02-22T06:28:35.277Z,317
2019-02-22T06:29:42.217Z,317
2019-02-22T06:30:49.416Z,317
2019-02-22T06:31:56.342Z,318
2019-02-22T06:33:03.305Z,318
2019-02-22T06:34:10.493Z,317
2019-02-22T06:35:17.437Z,317
2019-02-22T06:36:24.667Z,317
2019-02-22T06:37:31.876Z,317
2019-02-22T06:38:39.072Z,317
2019-02-22T06:39:46.361Z,316
2019-02-22T06:40:53.555Z,316
2019-02-22T06:42:00.753Z,316
2019-02-22T06:43:07.950Z,316
2019-02-22T06:44:15.150Z,317
2019-02-22T06:45:22.357Z,316
2019-02-22T06:46:29.558Z,316
2019-02-22T06:47:36.486Z,317
2019-02-22T06:48:43.681Z,317
2019-02-22T06:49:50.877Z,316
2019-02-22T06:50:58.073Z,317
2019-02-22T06:52:05.005Z,317
2019-02-22T06:53:11.933Z,316
2019-02-22T06:54:19.131Z,315
2019-02-22T06:55:26.327Z,315
2019-02-22T06:56:33.261Z,315
2019-02-22T06:57:40.485Z,315
2019-02-22T06:58:47.981Z,315
2019-02-22T06:59:55.189Z,314
2019-02-22T07:01:02.120Z,314
2019-02-22T07:02:09.317Z,314
2019-02-22T07:03:16.522Z,314
2019-02-22T07:04:23.718Z,314
2019-02-22T07:05:31.031Z,314
2019-02-22T07:06:38.225Z,314
2019-02-22T07:07:45.148Z,314
2019-02-22T07:08:52.390Z,313
2019-02-22T07:09:59.589Z,313
2019-02-22T07:11:06.929Z,313
2019-02-22T07:12:14.134Z,313
2019-02-22T07:13:21.329Z,313
2019-02-22T07:14:31.175Z,313
2019-02-22T07:15:38.372Z,312
2019-02-22T07:16:45.622Z,312
2019-02-22T07:17:52.517Z,312
2019-02-22T07:18:59.718Z,312
2019-02-22T07:20:06.656Z,312
2019-02-22T07:21:13.586Z,312
2019-02-22T07:22:20.797Z,312
2019-02-22T07:23:27.995Z,312
2019-02-22T07:24:35.192Z,312
2019-02-22T07:25:42.125Z,312
2019-02-22T07:26:49.055Z,312
2019-02-22T07:27:56.251Z,312
2019-02-22T07:29:03.176Z,312
2019-02-22T07:30:10.105Z,312
2019-02-22T07:31:17.302Z,312
2019-02-22T07:32:24.506Z,312
2019-02-22T07:33:31.715Z,312
2019-02-22T07:34:38.926Z,312
2019-02-22T07:35:46.132Z,312
2019-02-22T07:36:53.028Z,312
2019-02-22T07:38:00.229Z,312
2019-02-22T07:39:07.429Z,312
2019-02-22T07:40:14.356Z,312
2019-02-22T07:41:21.549Z,312
2019-02-22T07:42:28.744Z,312
2019-02-22T07:43:35.954Z,311
2019-02-22T07:44:42.872Z,312
2019-02-22T07:45:50.073Z,311
2019-02-22T07:46:56.724Z,311
2019-02-22T07:48:03.925Z,312
2019-02-22T07:49:10.853Z,311
2019-02-22T07:50:18.059Z,311
2019-02-22T07:51:24.712Z,311
2019-02-22T07:52:31.913Z,311
2019-02-22T07:53:39.112Z,311
2019-02-22T07:54:46.314Z,310
2019-02-22T07:55:53.800Z,310
2019-02-22T07:57:00.729Z,310
2019-02-22T07:58:09.765Z,310
2019-02-22T07:59:16.960Z,310
2019-02-22T08:00:23.883Z,309
2019-02-22T08:01:30.819Z,309
2019-02-22T08:02:37.750Z,309
2019-02-22T08:03:44.948Z,309
2019-02-22T08:04:52.145Z,309
2019-02-22T08:05:59.345Z,309
2019-02-22T08:07:06.545Z,309
2019-02-22T08:08:13.754Z,309
2019-02-22T08:09:20.956Z,309
2019-02-22T08:10:28.156Z,309
2019-02-22T08:11:35.434Z,309
2019-02-22T08:12:42.632Z,309
2019-02-22T08:13:49.825Z,308
2019-02-22T08:14:56.763Z,309
2019-02-22T08:16:03.728Z,308
2019-02-22T08:17:10.651Z,308
2019-02-22T08:18:17.858Z,308
2019-02-22T08:19:25.090Z,308
2019-02-22T08:20:32.273Z,309
2019-02-22T08:21:39.478Z,308
2019-02-22T08:22:46.673Z,308
2019-02-22T08:23:53.875Z,308
2019-02-22T08:25:01.237Z,308
2019-02-22T08:26:08.427Z,308
2019-02-22T08:27:15.626Z,308
2019-02-22T08:28:22.822Z,307
2019-02-22T08:29:30.021Z,307
2019-02-22T08:30:37.230Z,307
2019-02-22T08:31:44.423Z,307
2019-02-22T08:32:51.628Z,307
2019-02-22T08:33:58.829Z,307
2019-02-22T08:35:06.039Z,307
2019-02-22T08:36:13.245Z,307
2019-02-22T08:37:20.449Z,308
2019-02-22T08:38:27.648Z,308
2019-02-22T08:39:34.844Z,309
2019-02-22T08:40:41.799Z,308
2019-02-22T08:41:49.005Z,308
2019-02-22T08:42:56.203Z,308
2019-02-22T08:44:03.172Z,308
2019-02-22T08:45:10.800Z,308
2019-02-22T08:46:18.000Z,309
2019-02-22T08:47:24.933Z,309
2019-02-22T08:48:31.862Z,308
2019-02-22T08:49:39.062Z,308
2019-02-22T08:50:45.981Z,308
2019-02-22T08:51:52.910Z,308
2019-02-22T08:53:00.117Z,308
2019-02-22T08:54:07.038Z,308
2019-02-22T08:55:14.241Z,307
2019-02-22T08:56:20.897Z,308
2019-02-22T08:57:27.826Z,308
2019-02-22T08:58:35.025Z,308
2019-02-22T08:59:41.962Z,308
2019-02-22T09:00:49.189Z,308
2019-02-22T09:01:56.400Z,308
2019-02-22T09:03:03.616Z,308
2019-02-22T23:00:06.777Z,337
2019-02-22T23:01:13.979Z,340
2019-02-22T23:02:21.170Z,339
2019-02-22T23:03:28.087Z,339
2019-02-22T23:04:35.279Z,339
2019-02-22T23:05:42.477Z,339
2019-02-22T23:06:49.404Z,338
2019-02-22T23:07:56.603Z,338
2019-02-22T23:09:03.800Z,337
2019-02-22T23:10:10.992Z,338
2019-02-22T23:11:18.188Z,337
2019-02-22T23:12:25.384Z,338
2019-02-22T23:13:32.301Z,337
2019-02-22T23:14:39.498Z,336
2019-02-22T23:15:46.694Z,336
2019-02-22T23:16:53.931Z,336
2019-02-22T23:18:00.856Z,335
2019-02-22T23:19:08.047Z,335
2019-02-22T23:20:15.245Z,335
2019-02-22T23:21:22.439Z,335
2019-02-22T23:22:29.635Z,335
2019-02-22T23:23:36.839Z,334
2019-02-22T23:24:43.757Z,335
2019-02-22T23:25:50.954Z,335
2019-02-22T23:26:58.145Z,335
2019-02-22T23:28:05.336Z,334
2019-02-22T23:29:12.562Z,334
2019-02-22T23:30:19.488Z,333
2019-02-22T23:31:26.675Z,332
2019-02-22T23:32:33.872Z,333
2019-02-22T23:33:41.063Z,333
2019-02-22T23:34:48.000Z,334
2019-02-22T23:35:55.190Z,334
2019-02-22T23:37:02.106Z,334
2019-02-22T23:38:09.383Z,335
2019-02-22T23:39:16.304Z,334
2019-02-22T23:40:23.223Z,335
2019-02-22T23:41:30.423Z,335
2019-02-22T23:42:37.625Z,335
2019-02-22T23:43:44.818Z,334
2019-02-22T23:44:52.005Z,333
2019-02-22T23:45:59.200Z,333
2019-02-22T23:47:06.394Z,332
2019-02-22T23:48:13.588Z,332
2019-02-22T23:49:20.787Z,332
2019-02-22T23:50:27.706Z,333
2019-02-22T23:51:34.899Z,333
2019-02-22T23:52:42.092Z,333
2019-02-22T23:53:49.286Z,333
2019-02-22T23:54:56.528Z,332
2019-02-22T23:56:03.718Z,332
2019-02-22T23:57:10.915Z,332
2019-02-22T23:58:18.111Z,332
2019-02-22T23:59:25.406Z,332
